TAM3390 SBBR-SBCY
Flight info
| Callsign | TAM3390 |
|---|---|
| Flight time | 1h 0m |
| Altitude | 34000 |
| Route | SIREM DCT LODOV DCT MABMA DCT BOKIM |
| Aircraft | A320/M-SDE3FGHIRWY/LB1 |
Departure
| Time | 2026-04-21 15:45 |
|---|---|
| Airport | Presidente Juscelino Kubitschek International Airport (SBBR) |
Arrival
| Time | 2026-04-21 16:46 |
|---|---|
| Airport | Várzea Grande–Marechal Rondon International Airport (SBCY) |
| Time | Latitude | Longitude | Altitude | Speed | Heading |
|---|---|---|---|---|---|
| 2026-04-21 15:19 | -15.86940 | -47.91950 | 3494 ft | 0 kts | 266° |
| 2026-04-21 15:32 | -15.86940 | -47.91943 | 3494 ft | 2 kts | 266° |
| 2026-04-21 15:32 | -15.86939 | -47.91924 | 3494 ft | 3 kts | 266° |
| 2026-04-21 15:35 | -15.86939 | -47.91925 | 3494 ft | 2 kts | 266° |
| 2026-04-21 15:35 | -15.86939 | -47.91928 | 3494 ft | 0 kts | 266° |
| 2026-04-21 15:36 | -15.86939 | -47.91927 | 3494 ft | 1 kts | 266° |
| 2026-04-21 15:36 | -15.86938 | -47.91918 | 3494 ft | 2 kts | 266° |
| 2026-04-21 15:36 | -15.86937 | -47.91899 | 3494 ft | 2 kts | 266° |
| 2026-04-21 15:39 | -15.86977 | -47.91909 | 3494 ft | 16 kts | 148° |
| 2026-04-21 15:39 | -15.87101 | -47.91812 | 3494 ft | 22 kts | 134° |
| 2026-04-21 15:39 | -15.87151 | -47.91701 | 3494 ft | 11 kts | 83° |
| 2026-04-21 15:39 | -15.87213 | -47.91646 | 3494 ft | 20 kts | 176° |
| 2026-04-21 15:40 | -15.87401 | -47.91630 | 3494 ft | 32 kts | 175° |
| 2026-04-21 15:40 | -15.87538 | -47.91618 | 3494 ft | 15 kts | 176° |
| 2026-04-21 15:40 | -15.87666 | -47.91611 | 3494 ft | 15 kts | 201° |
| 2026-04-21 15:40 | -15.87682 | -47.91751 | 3494 ft | 25 kts | 265° |
| 2026-04-21 15:41 | -15.87697 | -47.91971 | 3494 ft | 33 kts | 266° |
| 2026-04-21 15:41 | -15.87713 | -47.92214 | 3494 ft | 33 kts | 266° |
| 2026-04-21 15:41 | -15.87728 | -47.92449 | 3494 ft | 33 kts | 266° |
| 2026-04-21 15:41 | -15.87744 | -47.92686 | 3494 ft | 33 kts | 266° |
| 2026-04-21 15:42 | -15.87758 | -47.92892 | 3494 ft | 14 kts | 266° |
| 2026-04-21 15:42 | -15.87816 | -47.92880 | 3494 ft | 18 kts | 122° |
| 2026-04-21 15:42 | -15.87902 | -47.92743 | 3494 ft | 21 kts | 123° |
| 2026-04-21 15:42 | -15.87957 | -47.92677 | 3494 ft | 10 kts | 89° |
| 2026-04-21 15:43 | -15.87956 | -47.92662 | 3494 ft | 0 kts | 86° |
| 2026-04-21 15:44 | -15.87956 | -47.92661 | 3494 ft | 0 kts | 86° |
| 2026-04-21 15:44 | -15.87946 | -47.92469 | 3494 ft | 64 kts | 86° |
| 2026-04-21 15:44 | -15.87899 | -47.91773 | 3494 ft | 129 kts | 86° |
| 2026-04-21 15:45 | -15.87827 | -47.90726 | 3662 ft | 148 kts | 86° |
| 2026-04-21 15:45 | -15.87753 | -47.89651 | 4069 ft | 150 kts | 86° |
| 2026-04-21 15:45 | -15.87769 | -47.88598 | 4563 ft | 145 kts | 105° |
| 2026-04-21 15:45 | -15.88370 | -47.87751 | 4748 ft | 153 kts | 150° |
| 2026-04-21 15:46 | -15.89451 | -47.87511 | 5019 ft | 166 kts | 174° |
| 2026-04-21 15:46 | -15.90624 | -47.87387 | 5566 ft | 178 kts | 172° |
| 2026-04-21 15:46 | -15.91936 | -47.87144 | 5777 ft | 205 kts | 169° |
| 2026-04-21 15:46 | -15.93439 | -47.86849 | 5888 ft | 235 kts | 169° |
| 2026-04-21 15:47 | -15.94541 | -47.86641 | 6116 ft | 249 kts | 170° |
| 2026-04-21 15:47 | -15.96298 | -47.86317 | 6658 ft | 262 kts | 170° |
| 2026-04-21 15:47 | -15.98126 | -47.85961 | 7341 ft | 272 kts | 173° |
| 2026-04-21 15:47 | -16.00116 | -47.85603 | 8182 ft | 278 kts | 174° |
| 2026-04-21 15:48 | -16.02053 | -47.85269 | 8778 ft | 285 kts | 174° |
| 2026-04-21 15:48 | -16.04012 | -47.84930 | 8944 ft | 285 kts | 174° |
| 2026-04-21 15:48 | -16.05969 | -47.84590 | 8984 ft | 285 kts | 174° |
| 2026-04-21 15:48 | -16.07923 | -47.84414 | 8989 ft | 280 kts | 187° |
| 2026-04-21 15:49 | -16.09802 | -47.84836 | 8994 ft | 273 kts | 206° |
| 2026-04-21 15:49 | -16.11375 | -47.85878 | 8996 ft | 267 kts | 226° |
| 2026-04-21 15:49 | -16.12482 | -47.87395 | 8996 ft | 263 kts | 245° |
| 2026-04-21 15:49 | -16.13018 | -47.89292 | 9090 ft | 265 kts | 265° |
| 2026-04-21 15:50 | -16.12873 | -47.91195 | 9937 ft | 266 kts | 283° |
| 2026-04-21 15:50 | -16.12122 | -47.92996 | 10467 ft | 285 kts | 301° |
| 2026-04-21 15:50 | -16.10844 | -47.94671 | 10918 ft | 305 kts | 308° |
| 2026-04-21 15:50 | -16.09571 | -47.96492 | 11502 ft | 317 kts | 295° |
| 2026-04-21 15:51 | -16.09043 | -47.98729 | 12119 ft | 323 kts | 271° |
| 2026-04-21 15:51 | -16.09445 | -48.01032 | 12865 ft | 329 kts | 249° |
| 2026-04-21 15:51 | -16.10471 | -48.03179 | 13629 ft | 333 kts | 244° |
| 2026-04-21 15:51 | -16.11606 | -48.05356 | 14346 ft | 338 kts | 243° |
| 2026-04-21 15:52 | -16.12764 | -48.07557 | 15050 ft | 342 kts | 243° |
| 2026-04-21 15:52 | -16.13927 | -48.09764 | 15733 ft | 345 kts | 243° |
| 2026-04-21 15:52 | -16.15088 | -48.11964 | 16392 ft | 349 kts | 243° |
| 2026-04-21 15:52 | -16.16262 | -48.14192 | 17035 ft | 352 kts | 243° |
| 2026-04-21 15:53 | -16.17447 | -48.16447 | 17665 ft | 356 kts | 243° |
| 2026-04-21 15:53 | -16.18635 | -48.18711 | 18276 ft | 359 kts | 243° |
| 2026-04-21 15:53 | -16.19837 | -48.20999 | 18884 ft | 362 kts | 243° |
| 2026-04-21 15:53 | -16.21050 | -48.23308 | 19477 ft | 364 kts | 243° |
| 2026-04-21 15:54 | -16.22296 | -48.25681 | 20056 ft | 367 kts | 243° |
| 2026-04-21 15:54 | -16.23526 | -48.28023 | 20599 ft | 370 kts | 243° |
| 2026-04-21 15:54 | -16.24912 | -48.30284 | 21155 ft | 374 kts | 233° |
| 2026-04-21 15:54 | -16.26655 | -48.32328 | 21678 ft | 378 kts | 230° |
| 2026-04-21 15:55 | -16.28461 | -48.34342 | 22141 ft | 382 kts | 229° |
| 2026-04-21 15:55 | -16.30280 | -48.36376 | 22597 ft | 385 kts | 229° |
| 2026-04-21 15:55 | -16.32110 | -48.38434 | 23047 ft | 388 kts | 230° |
| 2026-04-21 15:55 | -16.33945 | -48.40510 | 23486 ft | 391 kts | 230° |
| 2026-04-21 15:56 | -16.35885 | -48.42714 | 23937 ft | 394 kts | 230° |
| 2026-04-21 15:56 | -16.37721 | -48.44804 | 24347 ft | 397 kts | 230° |
| 2026-04-21 15:56 | -16.38982 | -48.46242 | 24621 ft | 398 kts | 230° |
| 2026-04-21 15:56 | -16.40854 | -48.48379 | 25014 ft | 401 kts | 230° |
| 2026-04-21 15:57 | -16.43355 | -48.51238 | 25517 ft | 404 kts | 230° |
| 2026-04-21 15:57 | -16.45255 | -48.53413 | 25883 ft | 407 kts | 230° |
| 2026-04-21 15:57 | -16.46542 | -48.54886 | 26123 ft | 408 kts | 230° |
| 2026-04-21 15:57 | -16.49086 | -48.57799 | 26583 ft | 411 kts | 230° |
| 2026-04-21 15:58 | -16.50394 | -48.59298 | 26811 ft | 413 kts | 230° |
| 2026-04-21 15:58 | -16.52334 | -48.61521 | 27140 ft | 415 kts | 230° |
| 2026-04-21 15:58 | -16.54279 | -48.63752 | 27460 ft | 417 kts | 230° |
| 2026-04-21 15:58 | -16.56035 | -48.66156 | 27694 ft | 418 kts | 241° |
| 2026-04-21 15:59 | -16.57391 | -48.68855 | 28028 ft | 419 kts | 245° |
| 2026-04-21 15:59 | -16.58674 | -48.71582 | 28357 ft | 420 kts | 245° |
| 2026-04-21 15:59 | -16.59965 | -48.74323 | 28674 ft | 422 kts | 245° |
| 2026-04-21 15:59 | -16.61269 | -48.77070 | 28978 ft | 424 kts | 245° |
| 2026-04-21 16:00 | -16.62593 | -48.79836 | 29275 ft | 426 kts | 245° |
| 2026-04-21 16:00 | -16.63922 | -48.82600 | 29565 ft | 428 kts | 245° |
| 2026-04-21 16:00 | -16.65265 | -48.85381 | 29868 ft | 429 kts | 244° |
| 2026-04-21 16:00 | -16.66618 | -48.88176 | 30159 ft | 431 kts | 244° |
| 2026-04-21 16:01 | -16.67977 | -48.90978 | 30442 ft | 433 kts | 244° |
| 2026-04-21 16:01 | -16.69342 | -48.93787 | 30744 ft | 434 kts | 244° |
| 2026-04-21 16:01 | -16.70710 | -48.96599 | 31064 ft | 434 kts | 244° |
| 2026-04-21 16:01 | -16.72039 | -48.99329 | 31384 ft | 434 kts | 244° |
| 2026-04-21 16:02 | -16.73503 | -49.02336 | 31742 ft | 434 kts | 244° |
| 2026-04-21 16:02 | -16.74866 | -49.05134 | 32075 ft | 434 kts | 244° |
| 2026-04-21 16:02 | -16.76191 | -49.07853 | 32398 ft | 434 kts | 244° |
| 2026-04-21 16:02 | -16.77612 | -49.10772 | 32741 ft | 433 kts | 244° |
| 2026-04-21 16:03 | -16.78975 | -49.13571 | 33065 ft | 432 kts | 244° |
| 2026-04-21 16:03 | -16.80338 | -49.16371 | 33384 ft | 432 kts | 244° |
| 2026-04-21 16:03 | -16.81699 | -49.19167 | 33716 ft | 431 kts | 244° |
| 2026-04-21 16:03 | -16.83056 | -49.21956 | 33922 ft | 431 kts | 244° |
| 2026-04-21 16:04 | -16.85869 | -49.27741 | 33991 ft | 426 kts | 244° |
| 2026-04-21 16:04 | -16.88553 | -49.33266 | 33995 ft | 426 kts | 244° |
| 2026-04-21 16:05 | -16.91231 | -49.38783 | 33996 ft | 425 kts | 244° |
| 2026-04-21 16:05 | -16.93909 | -49.44303 | 33996 ft | 425 kts | 244° |
| 2026-04-21 16:06 | -16.96606 | -49.49865 | 33996 ft | 425 kts | 244° |
| 2026-04-21 16:06 | -16.99288 | -49.55400 | 33996 ft | 425 kts | 244° |
| 2026-04-21 16:07 | -17.01943 | -49.60884 | 33996 ft | 425 kts | 244° |
| 2026-04-21 16:07 | -17.04615 | -49.66408 | 33996 ft | 425 kts | 244° |
| 2026-04-21 16:08 | -17.08635 | -49.74727 | 33996 ft | 425 kts | 244° |
| 2026-04-21 16:09 | -17.11299 | -49.80244 | 33996 ft | 425 kts | 244° |
| 2026-04-21 16:09 | -17.13947 | -49.85735 | 33996 ft | 425 kts | 245° |
| 2026-04-21 16:10 | -17.16205 | -49.90420 | 33996 ft | 425 kts | 245° |
| 2026-04-21 16:10 | -17.18869 | -49.95951 | 33996 ft | 425 kts | 245° |
| 2026-04-21 16:11 | -17.20548 | -50.01825 | 33995 ft | 423 kts | 266° |
| 2026-04-21 16:11 | -17.20474 | -50.04897 | 33997 ft | 423 kts | 277° |
| 2026-04-21 16:11 | -17.20033 | -50.07940 | 33997 ft | 423 kts | 278° |
| 2026-04-21 16:12 | -17.19072 | -50.14049 | 33996 ft | 423 kts | 279° |
| 2026-04-21 16:12 | -17.18122 | -50.20123 | 33996 ft | 423 kts | 278° |
| 2026-04-21 16:13 | -17.17175 | -50.26202 | 33996 ft | 423 kts | 278° |
| 2026-04-21 16:13 | -17.16217 | -50.32362 | 33996 ft | 423 kts | 278° |
| 2026-04-21 16:14 | -17.16086 | -50.33204 | 33996 ft | 423 kts | 278° |
| 2026-04-21 16:16 | -17.16017 | -50.33645 | 33996 ft | 423 kts | 278° |
| 2026-04-21 16:16 | -17.15057 | -50.39806 | 33996 ft | 423 kts | 278° |
| 2026-04-21 16:17 | -17.14109 | -50.45883 | 33996 ft | 423 kts | 278° |
| 2026-04-21 16:17 | -17.13728 | -50.48320 | 33996 ft | 423 kts | 278° |
| 2026-04-21 16:18 | -17.12875 | -50.53777 | 33998 ft | 421 kts | 278° |
| 2026-04-21 16:18 | -17.11912 | -50.59919 | 33999 ft | 422 kts | 279° |
| 2026-04-21 16:19 | -17.10958 | -50.65992 | 33999 ft | 422 kts | 279° |
| 2026-04-21 16:19 | -17.10003 | -50.72055 | 33999 ft | 422 kts | 279° |
| 2026-04-21 16:20 | -17.09332 | -50.76311 | 33999 ft | 422 kts | 279° |
| 2026-04-21 16:20 | -17.08394 | -50.82251 | 33999 ft | 422 kts | 279° |
| 2026-04-21 16:21 | -17.07434 | -50.88311 | 33999 ft | 422 kts | 279° |
| 2026-04-21 16:21 | -17.06474 | -50.94361 | 33999 ft | 422 kts | 279° |
| 2026-04-21 16:22 | -17.05507 | -51.00445 | 33999 ft | 422 kts | 279° |
| 2026-04-21 16:22 | -17.01641 | -51.24646 | 33999 ft | 422 kts | 279° |
| 2026-04-21 16:23 | -16.97750 | -51.48803 | 33999 ft | 422 kts | 279° |
| 2026-04-21 16:23 | -16.93798 | -51.73151 | 33999 ft | 422 kts | 279° |
| 2026-04-21 16:24 | -16.89871 | -51.97155 | 33999 ft | 422 kts | 279° |
| 2026-04-21 16:24 | -16.85864 | -52.21463 | 33999 ft | 422 kts | 279° |
| 2026-04-21 16:25 | -16.79819 | -52.57796 | 33999 ft | 422 kts | 279° |
| 2026-04-21 16:25 | -16.71562 | -53.06767 | 33999 ft | 422 kts | 279° |
| 2026-04-21 16:26 | -16.61830 | -53.54569 | 33998 ft | 422 kts | 281° |
| 2026-04-21 16:26 | -16.55765 | -53.83996 | 34067 ft | 423 kts | 281° |
| 2026-04-21 16:27 | -16.52787 | -53.98355 | 33999 ft | 422 kts | 281° |
| 2026-04-21 16:27 | -16.47815 | -54.22215 | 33999 ft | 422 kts | 281° |
| 2026-04-21 16:28 | -16.43303 | -54.43747 | 33770 ft | 424 kts | 282° |
| 2026-04-21 16:28 | -16.42675 | -54.46733 | 33520 ft | 419 kts | 282° |
| 2026-04-21 16:28 | -16.42046 | -54.49721 | 33265 ft | 415 kts | 282° |
| 2026-04-21 16:28 | -16.41421 | -54.52688 | 33012 ft | 414 kts | 282° |
| 2026-04-21 16:29 | -16.40804 | -54.55613 | 32761 ft | 412 kts | 282° |
| 2026-04-21 16:29 | -16.38850 | -54.64864 | 31961 ft | 407 kts | 282° |
| 2026-04-21 16:29 | -16.36434 | -54.76277 | 30959 ft | 400 kts | 282° |
| 2026-04-21 16:29 | -16.34043 | -54.87538 | 29262 ft | 399 kts | 282° |
| 2026-04-21 16:30 | -16.31674 | -54.98668 | 26962 ft | 385 kts | 282° |
| 2026-04-21 16:30 | -16.29396 | -55.09329 | 24794 ft | 367 kts | 282° |
| 2026-04-21 16:30 | -16.28698 | -55.12590 | 23952 ft | 366 kts | 282° |
| 2026-04-21 16:30 | -16.28123 | -55.15274 | 23345 ft | 363 kts | 282° |
| 2026-04-21 16:31 | -16.27576 | -55.17825 | 22825 ft | 359 kts | 282° |
| 2026-04-21 16:31 | -16.27037 | -55.20342 | 22296 ft | 355 kts | 282° |
| 2026-04-21 16:31 | -16.26502 | -55.22836 | 21784 ft | 351 kts | 282° |
| 2026-04-21 16:31 | -16.25972 | -55.25302 | 21290 ft | 347 kts | 282° |
| 2026-04-21 16:32 | -16.25447 | -55.27745 | 21071 ft | 337 kts | 282° |
| 2026-04-21 16:32 | -16.24639 | -55.30028 | 20807 ft | 340 kts | 294° |
| 2026-04-21 16:32 | -16.23501 | -55.32215 | 20101 ft | 344 kts | 297° |
| 2026-04-21 16:32 | -16.22328 | -55.34382 | 19451 ft | 344 kts | 297° |
| 2026-04-21 16:33 | -16.21157 | -55.36570 | 18798 ft | 345 kts | 297° |
| 2026-04-21 16:33 | -16.20003 | -55.38753 | 18258 ft | 343 kts | 297° |
| 2026-04-21 16:33 | -16.18866 | -55.40919 | 17719 ft | 340 kts | 296° |
| 2026-04-21 16:33 | -16.17743 | -55.43069 | 17292 ft | 335 kts | 296° |
| 2026-04-21 16:34 | -16.16643 | -55.45182 | 16866 ft | 330 kts | 296° |
| 2026-04-21 16:34 | -16.15560 | -55.47268 | 16440 ft | 326 kts | 296° |
| 2026-04-21 16:34 | -16.14490 | -55.49330 | 16013 ft | 322 kts | 296° |
| 2026-04-21 16:34 | -16.13434 | -55.51368 | 15588 ft | 319 kts | 296° |
| 2026-04-21 16:35 | -16.12359 | -55.53444 | 15150 ft | 315 kts | 296° |
| 2026-04-21 16:35 | -16.11322 | -55.55446 | 14723 ft | 312 kts | 296° |
| 2026-04-21 16:35 | -16.10296 | -55.57426 | 14300 ft | 310 kts | 296° |
| 2026-04-21 16:35 | -16.09178 | -55.59325 | 14072 ft | 307 kts | 307° |
| 2026-04-21 16:36 | -16.07690 | -55.60933 | 14019 ft | 309 kts | 313° |
| 2026-04-21 16:36 | -16.06155 | -55.62475 | 13969 ft | 311 kts | 313° |
| 2026-04-21 16:36 | -16.04595 | -55.64047 | 13722 ft | 310 kts | 313° |
| 2026-04-21 16:36 | -16.03057 | -55.65603 | 13472 ft | 308 kts | 313° |
| 2026-04-21 16:37 | -16.01510 | -55.67179 | 13189 ft | 307 kts | 313° |
| 2026-04-21 16:37 | -15.99987 | -55.68732 | 12814 ft | 305 kts | 313° |
| 2026-04-21 16:37 | -15.98478 | -55.70275 | 12438 ft | 303 kts | 313° |
| 2026-04-21 16:37 | -15.96984 | -55.71804 | 12063 ft | 301 kts | 313° |
| 2026-04-21 16:38 | -15.95493 | -55.73331 | 11629 ft | 300 kts | 313° |
| 2026-04-21 16:38 | -15.93695 | -55.75173 | 10949 ft | 300 kts | 313° |
| 2026-04-21 16:38 | -15.90725 | -55.78217 | 9797 ft | 299 kts | 313° |
| 2026-04-21 16:38 | -15.87778 | -55.81240 | 8682 ft | 300 kts | 313° |
| 2026-04-21 16:39 | -15.84786 | -55.84310 | 7488 ft | 299 kts | 313° |
| 2026-04-21 16:39 | -15.82914 | -55.86229 | 7063 ft | 282 kts | 313° |
| 2026-04-21 16:39 | -15.81567 | -55.87607 | 7011 ft | 264 kts | 312° |
| 2026-04-21 16:39 | -15.80267 | -55.88937 | 6962 ft | 259 kts | 312° |
| 2026-04-21 16:40 | -15.78990 | -55.90252 | 6405 ft | 258 kts | 310° |
| 2026-04-21 16:40 | -15.78045 | -55.91827 | 5777 ft | 258 kts | 289° |
| 2026-04-21 16:40 | -15.77880 | -55.93677 | 5188 ft | 261 kts | 262° |
| 2026-04-21 16:40 | -15.78615 | -55.95398 | 4600 ft | 265 kts | 234° |
| 2026-04-21 16:41 | -15.79411 | -55.96354 | 4385 ft | 264 kts | 229° |
| 2026-04-21 16:41 | -15.80969 | -55.98311 | 4075 ft | 262 kts | 240° |
| 2026-04-21 16:41 | -15.81476 | -56.00075 | 4009 ft | 247 kts | 268° |
| 2026-04-21 16:41 | -15.81124 | -56.01711 | 3994 ft | 222 kts | 296° |
| 2026-04-21 16:42 | -15.80263 | -56.02981 | 3987 ft | 213 kts | 311° |
| 2026-04-21 16:42 | -15.79166 | -56.03994 | 3636 ft | 211 kts | 323° |
| 2026-04-21 16:42 | -15.77945 | -56.04830 | 3296 ft | 208 kts | 328° |
| 2026-04-21 16:42 | -15.76678 | -56.05577 | 2975 ft | 205 kts | 331° |
| 2026-04-21 16:43 | -15.75431 | -56.06263 | 2678 ft | 201 kts | 332° |
| 2026-04-21 16:43 | -15.74205 | -56.06921 | 2417 ft | 194 kts | 333° |
| 2026-04-21 16:43 | -15.73055 | -56.07535 | 2152 ft | 177 kts | 333° |
| 2026-04-21 16:43 | -15.72026 | -56.08084 | 1916 ft | 155 kts | 333° |
| 2026-04-21 16:44 | -15.71108 | -56.08573 | 1702 ft | 145 kts | 333° |
| 2026-04-21 16:44 | -15.70506 | -56.08893 | 1580 ft | 143 kts | 333° |
| 2026-04-21 16:44 | -15.69622 | -56.09365 | 1396 ft | 143 kts | 333° |
| 2026-04-21 16:44 | -15.68741 | -56.09833 | 1212 ft | 142 kts | 333° |
| 2026-04-21 16:45 | -15.67839 | -56.10314 | 1020 ft | 142 kts | 333° |
| 2026-04-21 16:45 | -15.66961 | -56.10780 | 842 ft | 142 kts | 333° |
| 2026-04-21 16:45 | -15.66087 | -56.11243 | 653 ft | 141 kts | 333° |
| 2026-04-21 16:45 | -15.65418 | -56.11591 | 632 ft | 56 kts | 335° |
| 2026-04-21 16:46 | -15.65212 | -56.11710 | 632 ft | 21 kts | 323° |
| 2026-04-21 16:46 | -15.65221 | -56.11840 | 632 ft | 21 kts | 235° |
| 2026-04-21 16:46 | -15.65266 | -56.11896 | 632 ft | 0 kts | 230° |
| 2026-04-21 16:47 | -15.65267 | -56.11896 | 632 ft | 0 kts | 230° |
| 2026-04-21 16:48 | -15.65267 | -56.11897 | 632 ft | 0 kts | 230° |